A80 TRACON Summary / KATL TAF
ATL TRACON Summary:
Broad high pressure will remain in place through the day with another afternoon of isolated thunderstorms, mostly north of ATL. The airmass is ideal for outflow boundary interactions, causing numerous pop-up cells and wind shifts. Expect VFR conditions under a SCT004-060TCU deck. Surface winds will be southwest at 5-8kts. Flight hazards in the TRACON airspace outside convection: None expected.

Updated: 7/25/2016 12:30 PM
ATL Terminal Aerodrome Forecast:

FTUS42 KFFC 252006 AAA
TAFATL
TAF AMD
KATL 252006Z 2520/2624 26007KT P6SM BKN060
      TEMPO 2520/2523 VRB12KT 4SM -TSRA BR BKN035CB
     FM252300 27006KT P6SM SCT070
     FM260200 24003KT P6SM SCT100
     FM261600 24006KT P6SM SCT035 PROB30 2619/2623 4SM -TSRA BR
      BKN035CB=
ATL TRACON Area Remark:
ISOLATED TS EXPECTED ALL QUADS FROM 18-00Z.
Convective Gate Forecast / Collaborative Convective Forecast Product / Vertical Wind Profile
Convective Gate Forecast
AIRMETs & SIGMETS/ Southeast Radar loop / Satellite Image (click on image to enlarge)

Southeast Radar Loop

 



USA.gov is the U.S. government's official web portal to all federal, state and local government web resources and services.